sensor_id;sensor_type;location;lat;lon;timestamp;P1;P2;P0
75960;PMS7003;64644;48.914;2.254;2023-04-25T00:01:44;6.00;5.50;3.50
75960;PMS7003;64644;48.914;2.254;2023-04-25T00:04:10;6.25;5.50;3.00
75960;PMS7003;64644;48.914;2.254;2023-04-25T00:06:36;7.25;5.00;2.75
75960;PMS7003;64644;48.914;2.254;2023-04-25T00:09:03;5.25;3.50;2.50
75960;PMS7003;64644;48.914;2.254;2023-04-25T00:11:32;4.00;4.00;2.00
75960;PMS7003;64644;48.914;2.254;2023-04-25T00:13:58;2.25;2.25;2.00
75960;PMS7003;64644;48.914;2.254;2023-04-25T00:16:24;6.75;3.50;3.00
75960;PMS7003;64644;48.914;2.254;2023-04-25T00:18:50;4.50;4.50;3.00
75960;PMS7003;64644;48.914;2.254;2023-04-25T00:21:18;6.50;6.00;3.00
75960;PMS7003;64644;48.914;2.254;2023-04-25T00:23:44;5.00;3.00;3.00
75960;PMS7003;64644;48.914;2.254;2023-04-25T00:26:10;5.00;3.00;2.00
75960;PMS7003;64644;48.914;2.254;2023-04-25T00:28:36;3.00;3.00;2.75
75960;PMS7003;64644;48.914;2.254;2023-04-25T00:31:02;7.00;5.00;4.00
75960;PMS7003;64644;48.914;2.254;2023-04-25T00:33:28;7.00;6.00;2.75
75960;PMS7003;64644;48.914;2.254;2023-04-25T00:35:53;7.50;4.00;3.00
75960;PMS7003;64644;48.914;2.254;2023-04-25T00:38:19;6.25;6.25;5.00
75960;PMS7003;64644;48.914;2.254;2023-04-25T00:40:44;6.50;6.50;4.00
75960;PMS7003;64644;48.914;2.254;2023-04-25T00:43:09;5.00;5.00;3.00
75960;PMS7003;64644;48.914;2.254;2023-04-25T00:45:35;7.25;6.75;3.50
75960;PMS7003;64644;48.914;2.254;2023-04-25T00:48:04;5.75;5.75;3.00
75960;PMS7003;64644;48.914;2.254;2023-04-25T00:50:29;4.75;4.50;3.00
75960;PMS7003;64644;48.914;2.254;2023-04-25T00:52:55;9.00;6.50;3.00
75960;PMS7003;64644;48.914;2.254;2023-04-25T00:55:20;10.25;6.25;5.00
75960;PMS7003;64644;48.914;2.254;2023-04-25T00:57:46;5.00;5.00;2.50
75960;PMS7003;64644;48.914;2.254;2023-04-25T01:00:12;7.00;4.50;2.00
75960;PMS7003;64644;48.914;2.254;2023-04-25T01:02:39;6.00;6.00;3.00
75960;PMS7003;64644;48.914;2.254;2023-04-25T01:05:05;4.50;4.50;3.00
75960;PMS7003;64644;48.914;2.254;2023-04-25T01:07:31;6.00;5.25;3.00
75960;PMS7003;64644;48.914;2.254;2023-04-25T01:09:56;4.50;4.50;3.00
75960;PMS7003;64644;48.914;2.254;2023-04-25T01:12:21;6.00;3.00;2.50
75960;PMS7003;64644;48.914;2.254;2023-04-25T01:14:48;6.00;5.75;5.00
75960;PMS7003;64644;48.914;2.254;2023-04-25T01:17:13;3.00;3.00;2.00
75960;PMS7003;64644;48.914;2.254;2023-04-25T01:19:39;1.50;1.50;1.00
75960;PMS7003;64644;48.914;2.254;2023-04-25T01:22:05;6.50;5.00;2.50
75960;PMS7003;64644;48.914;2.254;2023-04-25T01:24:33;7.00;5.50;3.00
75960;PMS7003;64644;48.914;2.254;2023-04-25T01:27:00;5.75;5.00;3.00
75960;PMS7003;64644;48.914;2.254;2023-04-25T01:29:33;6.25;5.00;2.00
75960;PMS7003;64644;48.914;2.254;2023-04-25T01:32:00;7.00;5.00;3.00
75960;PMS7003;64644;48.914;2.254;2023-04-25T01:34:26;5.00;3.00;2.00
75960;PMS7003;64644;48.914;2.254;2023-04-25T01:36:52;5.25;3.50;3.00
75960;PMS7003;64644;48.914;2.254;2023-04-25T01:39:18;5.50;5.50;4.00
75960;PMS7003;64644;48.914;2.254;2023-04-25T01:41:45;5.00;3.50;3.00
75960;PMS7003;64644;48.914;2.254;2023-04-25T01:44:12;10.00;7.50;5.75
75960;PMS7003;64644;48.914;2.254;2023-04-25T01:46:38;6.75;6.00;4.50
75960;PMS7003;64644;48.914;2.254;2023-04-25T01:49:04;9.00;5.00;3.00
75960;PMS7003;64644;48.914;2.254;2023-04-25T01:51:30;5.75;5.75;3.00
75960;PMS7003;64644;48.914;2.254;2023-04-25T01:53:56;5.50;5.50;3.50
75960;PMS7003;64644;48.914;2.254;2023-04-25T01:56:22;5.25;5.25;2.75
75960;PMS7003;64644;48.914;2.254;2023-04-25T01:58:47;2.75;2.75;2.50
75960;PMS7003;64644;48.914;2.254;2023-04-25T02:01:13;6.00;6.00;5.00
75960;PMS7003;64644;48.914;2.254;2023-04-25T02:03:39;5.00;5.00;3.50
75960;PMS7003;64644;48.914;2.254;2023-04-25T02:06:04;9.25;6.00;4.00
75960;PMS7003;64644;48.914;2.254;2023-04-25T02:08:30;9.50;9.50;5.50
75960;PMS7003;64644;48.914;2.254;2023-04-25T02:10:56;6.00;5.75;5.00
75960;PMS7003;64644;48.914;2.254;2023-04-25T02:13:21;8.00;6.00;5.00
75960;PMS7003;64644;48.914;2.254;2023-04-25T02:15:47;6.00;6.00;5.00
75960;PMS7003;64644;48.914;2.254;2023-04-25T02:18:12;8.00;6.00;3.50
75960;PMS7003;64644;48.914;2.254;2023-04-25T02:20:38;9.00;9.00;4.00
75960;PMS7003;64644;48.914;2.254;2023-04-25T02:23:03;6.25;6.25;3.50
75960;PMS7003;64644;48.914;2.254;2023-04-25T02:25:29;5.00;5.00;3.00
75960;PMS7003;64644;48.914;2.254;2023-04-25T02:27:54;5.00;5.00;3.00
75960;PMS7003;64644;48.914;2.254;2023-04-25T02:30:19;7.00;7.00;6.00
75960;PMS7003;64644;48.914;2.254;2023-04-25T02:32:45;6.00;5.00;3.00
75960;PMS7003;64644;48.914;2.254;2023-04-25T02:35:11;5.25;4.50;3.00
75960;PMS7003;64644;48.914;2.254;2023-04-25T02:37:37;9.50;6.00;2.25
75960;PMS7003;64644;48.914;2.254;2023-04-25T02:40:03;6.00;5.00;3.00
75960;PMS7003;64644;48.914;2.254;2023-04-25T02:42:29;10.00;6.75;3.50
75960;PMS7003;64644;48.914;2.254;2023-04-25T02:44:55;8.00;8.00;5.50
75960;PMS7003;64644;48.914;2.254;2023-04-25T02:47:20;7.00;7.00;4.00
75960;PMS7003;64644;48.914;2.254;2023-04-25T02:49:46;7.50;7.00;6.00
75960;PMS7003;64644;48.914;2.254;2023-04-25T02:52:11;10.00;6.50;4.50
75960;PMS7003;64644;48.914;2.254;2023-04-25T02:54:37;8.50;7.00;5.00
75960;PMS7003;64644;48.914;2.254;2023-04-25T02:57:03;6.50;6.50;5.50
75960;PMS7003;64644;48.914;2.254;2023-04-25T02:59:28;7.00;6.00;3.50
75960;PMS7003;64644;48.914;2.254;2023-04-25T03:01:53;7.50;7.50;3.00
75960;PMS7003;64644;48.914;2.254;2023-04-25T03:04:19;7.00;7.00;5.00
75960;PMS7003;64644;48.914;2.254;2023-04-25T03:06:45;9.25;9.25;5.75
75960;PMS7003;64644;48.914;2.254;2023-04-25T03:09:11;8.50;6.75;5.75
75960;PMS7003;64644;48.914;2.254;2023-04-25T03:11:37;11.75;8.00;6.25
75960;PMS7003;64644;48.914;2.254;2023-04-25T03:14:03;10.50;8.00;5.00
75960;PMS7003;64644;48.914;2.254;2023-04-25T03:16:28;9.00;9.00;6.25
75960;PMS7003;64644;48.914;2.254;2023-04-25T03:18:54;11.25;9.75;5.75
75960;PMS7003;64644;48.914;2.254;2023-04-25T03:21:19;12.00;12.00;6.00
75960;PMS7003;64644;48.914;2.254;2023-04-25T03:23:45;9.00;9.00;5.25
75960;PMS7003;64644;48.914;2.254;2023-04-25T03:26:10;10.50;8.00;6.25
75960;PMS7003;64644;48.914;2.254;2023-04-25T03:28:36;11.25;9.00;6.25
75960;PMS7003;64644;48.914;2.254;2023-04-25T03:31:01;10.00;9.25;6.00
75960;PMS7003;64644;48.914;2.254;2023-04-25T03:33:26;14.00;13.75;9.00
75960;PMS7003;64644;48.914;2.254;2023-04-25T03:35:51;9.00;9.00;6.75
75960;PMS7003;64644;48.914;2.254;2023-04-25T03:38:17;10.00;7.00;6.00
75960;PMS7003;64644;48.914;2.254;2023-04-25T03:40:43;7.00;7.00;5.25
75960;PMS7003;64644;48.914;2.254;2023-04-25T03:43:08;10.00;9.00;6.00
75960;PMS7003;64644;48.914;2.254;2023-04-25T03:45:34;13.00;9.00;6.75
75960;PMS7003;64644;48.914;2.254;2023-04-25T03:47:59;9.75;9.75;7.50
75960;PMS7003;64644;48.914;2.254;2023-04-25T03:50:25;8.00;8.00;5.00
75960;PMS7003;64644;48.914;2.254;2023-04-25T03:52:50;7.50;7.50;5.00
75960;PMS7003;64644;48.914;2.254;2023-04-25T03:55:15;9.50;9.00;6.00
75960;PMS7003;64644;48.914;2.254;2023-04-25T03:57:41;9.50;7.00;5.50
75960;PMS7003;64644;48.914;2.254;2023-04-25T04:00:06;10.25;8.00;5.75
75960;PMS7003;64644;48.914;2.254;2023-04-25T04:02:32;11.75;10.00;6.75
75960;PMS7003;64644;48.914;2.254;2023-04-25T04:04:59;6.00;5.25;3.00
75960;PMS7003;64644;48.914;2.254;2023-04-25T04:07:25;8.00;8.00;5.25
75960;PMS7003;64644;48.914;2.254;2023-04-25T04:09:50;6.50;6.50;4.50
75960;PMS7003;64644;48.914;2.254;2023-04-25T04:12:16;12.75;10.00;6.00
75960;PMS7003;64644;48.914;2.254;2023-04-25T04:14:41;10.00;7.00;5.00
75960;PMS7003;64644;48.914;2.254;2023-04-25T04:17:06;15.50;11.00;6.00
75960;PMS7003;64644;48.914;2.254;2023-04-25T04:19:32;14.75;9.50;7.00
75960;PMS7003;64644;48.914;2.254;2023-04-25T04:21:57;9.00;8.00;5.00
75960;PMS7003;64644;48.914;2.254;2023-04-25T04:24:22;11.25;10.00;8.00
75960;PMS7003;64644;48.914;2.254;2023-04-25T04:26:48;11.75;10.00;6.25
75960;PMS7003;64644;48.914;2.254;2023-04-25T04:29:15;9.50;9.00;5.75
75960;PMS7003;64644;48.914;2.254;2023-04-25T04:31:46;10.25;9.50;6.00
75960;PMS7003;64644;48.914;2.254;2023-04-25T04:34:13;14.50;11.00;7.00
75960;PMS7003;64644;48.914;2.254;2023-04-25T04:36:38;13.75;10.25;6.00
75960;PMS7003;64644;48.914;2.254;2023-04-25T04:39:05;8.50;7.00;6.00
75960;PMS7003;64644;48.914;2.254;2023-04-25T04:41:31;9.75;8.50;5.75
75960;PMS7003;64644;48.914;2.254;2023-04-25T04:43:57;8.00;8.00;6.00
75960;PMS7003;64644;48.914;2.254;2023-04-25T04:46:22;12.50;10.25;6.50
75960;PMS7003;64644;48.914;2.254;2023-04-25T04:48:49;9.75;9.75;5.50
75960;PMS7003;64644;48.914;2.254;2023-04-25T04:51:14;9.75;9.00;6.75
75960;PMS7003;64644;48.914;2.254;2023-04-25T04:53:40;13.50;13.50;6.75
75960;PMS7003;64644;48.914;2.254;2023-04-25T04:56:05;10.25;9.50;7.25
75960;PMS7003;64644;48.914;2.254;2023-04-25T04:58:31;13.00;10.25;6.00
75960;PMS7003;64644;48.914;2.254;2023-04-25T05:00:56;11.00;9.50;6.50
75960;PMS7003;64644;48.914;2.254;2023-04-25T05:03:21;16.33;13.33;9.00
75960;PMS7003;64644;48.914;2.254;2023-04-25T05:05:47;8.25;5.25;4.75
75960;PMS7003;64644;48.914;2.254;2023-04-25T05:08:12;14.75;13.00;7.00
75960;PMS7003;64644;48.914;2.254;2023-04-25T05:10:38;19.50;13.00;7.50
75960;PMS7003;64644;48.914;2.254;2023-04-25T05:13:03;14.25;10.25;6.50
75960;PMS7003;64644;48.914;2.254;2023-04-25T05:15:28;13.00;11.00;8.50
75960;PMS7003;64644;48.914;2.254;2023-04-25T05:17:54;20.50;14.50;8.50
75960;PMS7003;64644;48.914;2.254;2023-04-25T05:20:20;14.00;10.00;8.50
75960;PMS7003;64644;48.914;2.254;2023-04-25T05:22:45;11.00;11.00;9.00
75960;PMS7003;64644;48.914;2.254;2023-04-25T05:25:10;10.00;10.00;6.75
75960;PMS7003;64644;48.914;2.254;2023-04-25T05:27:36;13.25;11.25;8.00
75960;PMS7003;64644;48.914;2.254;2023-04-25T05:30:01;14.25;12.50;9.00
75960;PMS7003;64644;48.914;2.254;2023-04-25T05:32:27;15.25;11.00;8.50
75960;PMS7003;64644;48.914;2.254;2023-04-25T05:34:52;13.75;13.00;9.00
75960;PMS7003;64644;48.914;2.254;2023-04-25T05:37:18;11.50;10.75;7.00
75960;PMS7003;64644;48.914;2.254;2023-04-25T05:39:43;15.50;12.00;9.00
75960;PMS7003;64644;48.914;2.254;2023-04-25T05:42:08;18.25;10.50;7.00
75960;PMS7003;64644;48.914;2.254;2023-04-25T05:44:34;15.75;14.25;9.25
75960;PMS7003;64644;48.914;2.254;2023-04-25T05:46:59;11.50;10.25;6.75
75960;PMS7003;64644;48.914;2.254;2023-04-25T05:49:24;18.50;16.00;10.50
75960;PMS7003;64644;48.914;2.254;2023-04-25T05:51:50;14.00;13.75;9.00
75960;PMS7003;64644;48.914;2.254;2023-04-25T05:54:15;15.25;14.00;9.25
75960;PMS7003;64644;48.914;2.254;2023-04-25T05:56:41;14.75;11.50;9.25
75960;PMS7003;64644;48.914;2.254;2023-04-25T05:59:06;13.25;12.25;9.25
75960;PMS7003;64644;48.914;2.254;2023-04-25T06:01:31;17.75;15.00;10.50
75960;PMS7003;64644;48.914;2.254;2023-04-25T06:03:57;21.50;18.25;11.00
75960;PMS7003;64644;48.914;2.254;2023-04-25T06:06:22;14.50;14.00;8.50
75960;PMS7003;64644;48.914;2.254;2023-04-25T06:08:47;13.50;10.75;9.00
75960;PMS7003;64644;48.914;2.254;2023-04-25T06:11:13;16.25;16.25;10.00
75960;PMS7003;64644;48.914;2.254;2023-04-25T06:13:38;14.00;13.00;9.00
75960;PMS7003;64644;48.914;2.254;2023-04-25T06:16:03;13.50;11.75;9.00
75960;PMS7003;64644;48.914;2.254;2023-04-25T06:18:29;11.00;11.00;8.50
75960;PMS7003;64644;48.914;2.254;2023-04-25T06:20:55;9.25;9.00;6.00
75960;PMS7003;64644;48.914;2.254;2023-04-25T06:23:20;9.50;7.00;5.00
75960;PMS7003;64644;48.914;2.254;2023-04-25T06:25:45;14.75;10.75;7.50
75960;PMS7003;64644;48.914;2.254;2023-04-25T06:28:11;9.00;9.00;7.00
75960;PMS7003;64644;48.914;2.254;2023-04-25T06:30:36;9.50;9.00;7.00
75960;PMS7003;64644;48.914;2.254;2023-04-25T06:33:01;6.25;6.25;5.00
75960;PMS7003;64644;48.914;2.254;2023-04-25T06:35:27;8.50;8.50;5.50
75960;PMS7003;64644;48.914;2.254;2023-04-25T06:37:52;12.00;9.00;6.00
75960;PMS7003;64644;48.914;2.254;2023-04-25T06:40:17;10.00;8.75;5.25
75960;PMS7003;64644;48.914;2.254;2023-04-25T06:42:43;12.75;9.75;6.00
75960;PMS7003;64644;48.914;2.254;2023-04-25T06:45:08;8.75;8.75;5.25
75960;PMS7003;64644;48.914;2.254;2023-04-25T06:47:34;9.00;7.00;6.00
75960;PMS7003;64644;48.914;2.254;2023-04-25T06:49:59;10.50;9.75;6.00
75960;PMS7003;64644;48.914;2.254;2023-04-25T06:52:25;12.50;10.00;6.50
75960;PMS7003;64644;48.914;2.254;2023-04-25T06:54:50;10.33;9.67;6.00
75960;PMS7003;64644;48.914;2.254;2023-04-25T06:57:15;10.00;10.00;6.25
75960;PMS7003;64644;48.914;2.254;2023-04-25T06:59:40;15.00;13.75;7.25
75960;PMS7003;64644;48.914;2.254;2023-04-25T07:02:06;15.25;14.75;10.00
75960;PMS7003;64644;48.914;2.254;2023-04-25T07:04:31;15.00;12.25;7.00
75960;PMS7003;64644;48.914;2.254;2023-04-25T07:06:56;15.00;13.00;8.75
75960;PMS7003;64644;48.914;2.254;2023-04-25T07:09:22;14.75;12.25;10.00
75960;PMS7003;64644;48.914;2.254;2023-04-25T07:11:47;16.25;15.00;9.00
75960;PMS7003;64644;48.914;2.254;2023-04-25T07:14:13;22.75;18.50;10.00
75960;PMS7003;64644;48.914;2.254;2023-04-25T07:16:38;23.33;16.67;11.00
75960;PMS7003;64644;48.914;2.254;2023-04-25T07:19:03;19.00;17.00;12.25
75960;PMS7003;64644;48.914;2.254;2023-04-25T07:21:29;17.00;14.00;9.75
75960;PMS7003;64644;48.914;2.254;2023-04-25T07:23:56;20.50;15.50;10.00
75960;PMS7003;64644;48.914;2.254;2023-04-25T07:26:21;17.25;15.25;10.00
75960;PMS7003;64644;48.914;2.254;2023-04-25T07:28:46;14.00;14.00;10.00
75960;PMS7003;64644;48.914;2.254;2023-04-25T07:31:15;18.00;14.00;9.50
75960;PMS7003;64644;48.914;2.254;2023-04-25T07:33:42;18.00;15.00;10.75
75960;PMS7003;64644;48.914;2.254;2023-04-25T07:36:08;24.00;18.50;10.75
75960;PMS7003;64644;48.914;2.254;2023-04-25T07:38:33;22.75;19.25;11.75
75960;PMS7003;64644;48.914;2.254;2023-04-25T07:40:59;26.75;22.25;14.00
75960;PMS7003;64644;48.914;2.254;2023-04-25T07:43:24;23.00;19.50;12.00
75960;PMS7003;64644;48.914;2.254;2023-04-25T07:45:49;19.25;15.75;10.75
75960;PMS7003;64644;48.914;2.254;2023-04-25T07:48:17;21.00;18.33;12.33
75960;PMS7003;64644;48.914;2.254;2023-04-25T07:50:46;17.25;14.50;9.50
75960;PMS7003;64644;48.914;2.254;2023-04-25T07:53:11;18.75;16.00;11.00
75960;PMS7003;64644;48.914;2.254;2023-04-25T07:55:36;24.00;21.00;14.00
75960;PMS7003;64644;48.914;2.254;2023-04-25T07:58:05;23.00;16.00;10.25
75960;PMS7003;64644;48.914;2.254;2023-04-25T08:00:33;18.00;14.25;11.00
75960;PMS7003;64644;48.914;2.254;2023-04-25T08:02:59;18.75;13.75;10.25
75960;PMS7003;64644;48.914;2.254;2023-04-25T08:05:24;18.00;13.75;10.25
75960;PMS7003;64644;48.914;2.254;2023-04-25T08:07:50;15.50;14.00;8.25
75960;PMS7003;64644;48.914;2.254;2023-04-25T08:10:15;18.00;16.00;10.25
75960;PMS7003;64644;48.914;2.254;2023-04-25T08:12:41;16.50;13.50;7.75
75960;PMS7003;64644;48.914;2.254;2023-04-25T08:15:06;14.50;11.00;8.00
75960;PMS7003;64644;48.914;2.254;2023-04-25T08:17:32;12.75;12.50;8.25
75960;PMS7003;64644;48.914;2.254;2023-04-25T08:19:57;16.00;14.00;10.00
75960;PMS7003;64644;48.914;2.254;2023-04-25T08:22:23;14.00;11.75;7.75
75960;PMS7003;64644;48.914;2.254;2023-04-25T08:24:48;13.75;12.25;6.75
75960;PMS7003;64644;48.914;2.254;2023-04-25T08:27:13;13.25;13.25;8.25
75960;PMS7003;64644;48.914;2.254;2023-04-25T08:29:39;11.25;11.25;7.00
75960;PMS7003;64644;48.914;2.254;2023-04-25T08:32:04;13.00;11.25;7.00
75960;PMS7003;64644;48.914;2.254;2023-04-25T08:34:30;15.75;11.50;7.75
75960;PMS7003;64644;48.914;2.254;2023-04-25T08:36:55;11.25;10.00;7.00
75960;PMS7003;64644;48.914;2.254;2023-04-25T08:39:20;14.00;9.00;6.00
75960;PMS7003;64644;48.914;2.254;2023-04-25T08:41:46;11.00;10.00;5.50
75960;PMS7003;64644;48.914;2.254;2023-04-25T08:44:12;12.00;9.25;7.50
75960;PMS7003;64644;48.914;2.254;2023-04-25T08:46:38;10.00;9.25;6.00
75960;PMS7003;64644;48.914;2.254;2023-04-25T08:49:07;11.75;10.50;5.50
75960;PMS7003;64644;48.914;2.254;2023-04-25T08:51:34;14.75;11.25;6.50
75960;PMS7003;64644;48.914;2.254;2023-04-25T08:54:10;10.00;7.25;5.50
75960;PMS7003;64644;48.914;2.254;2023-04-25T08:56:44;14.00;10.00;7.00
75960;PMS7003;64644;48.914;2.254;2023-04-25T08:59:11;6.25;5.00;3.00
75960;PMS7003;64644;48.914;2.254;2023-04-25T09:01:37;12.00;11.25;6.50
75960;PMS7003;64644;48.914;2.254;2023-04-25T09:04:02;14.50;13.50;7.25
75960;PMS7003;64644;48.914;2.254;2023-04-25T09:06:31;10.75;10.00;7.00
75960;PMS7003;64644;48.914;2.254;2023-04-25T09:09:05;12.00;11.00;7.25
75960;PMS7003;64644;48.914;2.254;2023-04-25T09:11:31;12.50;9.75;6.00
75960;PMS7003;64644;48.914;2.254;2023-04-25T09:14:13;11.50;9.25;7.00
75960;PMS7003;64644;48.914;2.254;2023-04-25T09:17:00;11.00;9.00;6.25
75960;PMS7003;64644;48.914;2.254;2023-04-25T09:19:29;11.00;8.00;3.00
75960;PMS7003;64644;48.914;2.254;2023-04-25T09:22:00;9.50;7.50;5.00
75960;PMS7003;64644;48.914;2.254;2023-04-25T09:27:07;10.25;10.25;5.75
75960;PMS7003;64644;48.914;2.254;2023-04-25T09:29:35;8.50;8.25;6.00
75960;PMS7003;64644;48.914;2.254;2023-04-25T09:32:12;10.00;8.00;6.00
75960;PMS7003;64644;48.914;2.254;2023-04-25T09:34:46;10.50;10.00;7.00
75960;PMS7003;64644;48.914;2.254;2023-04-25T09:37:16;12.25;7.75;5.75
75960;PMS7003;64644;48.914;2.254;2023-04-25T09:39:44;10.75;8.00;6.00
75960;PMS7003;64644;48.914;2.254;2023-04-25T09:42:12;9.50;7.00;5.00
75960;PMS7003;64644;48.914;2.254;2023-04-25T09:44:37;7.50;7.50;5.00
75960;PMS7003;64644;48.914;2.254;2023-04-25T09:47:11;8.75;8.75;6.75
75960;PMS7003;64644;48.914;2.254;2023-04-25T09:49:41;11.50;11.50;6.25
75960;PMS7003;64644;48.914;2.254;2023-04-25T09:52:07;10.50;6.00;5.00
75960;PMS7003;64644;48.914;2.254;2023-04-25T09:54:34;6.25;6.25;4.75
75960;PMS7003;64644;48.914;2.254;2023-04-25T09:57:01;8.25;8.25;6.00
75960;PMS7003;64644;48.914;2.254;2023-04-25T09:59:54;7.25;7.25;5.25
75960;PMS7003;64644;48.914;2.254;2023-04-25T10:02:21;9.75;8.00;5.00
75960;PMS7003;64644;48.914;2.254;2023-04-25T10:04:51;6.25;6.25;5.25
75960;PMS7003;64644;48.914;2.254;2023-04-25T10:07:20;9.75;7.00;3.00
75960;PMS7003;64644;48.914;2.254;2023-04-25T10:09:50;7.50;7.50;4.25
75960;PMS7003;64644;48.914;2.254;2023-04-25T10:12:27;12.00;8.00;5.00
75960;PMS7003;64644;48.914;2.254;2023-04-25T10:14:54;9.25;7.75;5.00
75960;PMS7003;64644;48.914;2.254;2023-04-25T10:17:19;11.75;6.75;6.00
75960;PMS7003;64644;48.914;2.254;2023-04-25T10:19:46;10.00;7.75;6.00
75960;PMS7003;64644;48.914;2.254;2023-04-25T10:22:24;7.75;7.00;4.25
75960;PMS7003;64644;48.914;2.254;2023-04-25T10:24:56;6.25;5.00;3.25
75960;PMS7003;64644;48.914;2.254;2023-04-25T10:27:21;6.00;6.00;4.25
75960;PMS7003;64644;48.914;2.254;2023-04-25T10:29:59;4.50;4.50;3.00
75960;PMS7003;64644;48.914;2.254;2023-04-25T10:32:30;7.00;6.00;4.25
75960;PMS7003;64644;48.914;2.254;2023-04-25T10:34:56;5.25;5.25;3.00
75960;PMS7003;64644;48.914;2.254;2023-04-25T10:37:22;9.25;7.00;3.75
75960;PMS7003;64644;48.914;2.254;2023-04-25T10:39:48;5.50;5.50;3.00
75960;PMS7003;64644;48.914;2.254;2023-04-25T10:42:14;7.00;5.50;2.00
75960;PMS7003;64644;48.914;2.254;2023-04-25T10:44:39;4.25;4.25;3.00
75960;PMS7003;64644;48.914;2.254;2023-04-25T10:47:06;4.00;3.00;2.50
75960;PMS7003;64644;48.914;2.254;2023-04-25T10:49:41;5.50;4.00;3.00
75960;PMS7003;64644;48.914;2.254;2023-04-25T10:52:10;4.50;4.50;2.50
75960;PMS7003;64644;48.914;2.254;2023-04-25T10:54:53;7.00;4.50;3.00
75960;PMS7003;64644;48.914;2.254;2023-04-25T11:02:30;5.25;5.25;3.00
75960;PMS7003;64644;48.914;2.254;2023-04-25T11:04:56;7.00;7.00;3.50
75960;PMS7003;64644;48.914;2.254;2023-04-25T11:07:37;6.50;6.25;3.00
75960;PMS7003;64644;48.914;2.254;2023-04-25T11:10:08;6.50;6.00;4.25
75960;PMS7003;64644;48.914;2.254;2023-04-25T11:12:33;8.25;7.75;5.00
75960;PMS7003;64644;48.914;2.254;2023-04-25T11:15:00;4.00;4.00;3.00
75960;PMS7003;64644;48.914;2.254;2023-04-25T11:17:28;6.00;6.00;3.50
75960;PMS7003;64644;48.914;2.254;2023-04-25T11:19:54;7.25;6.25;4.00
75960;PMS7003;64644;48.914;2.254;2023-04-25T11:22:21;5.50;4.50;3.25
75960;PMS7003;64644;48.914;2.254;2023-04-25T11:24:46;8.50;7.00;4.25
75960;PMS7003;64644;48.914;2.254;2023-04-25T11:27:12;5.00;5.00;3.00
75960;PMS7003;64644;48.914;2.254;2023-04-25T11:29:38;7.00;6.00;4.00
75960;PMS7003;64644;48.914;2.254;2023-04-25T11:32:03;3.50;3.50;2.00
75960;PMS7003;64644;48.914;2.254;2023-04-25T11:34:29;7.25;3.00;2.00
75960;PMS7003;64644;48.914;2.254;2023-04-25T11:36:56;6.00;3.25;2.50
75960;PMS7003;64644;48.914;2.254;2023-04-25T11:39:23;5.75;4.25;3.00
75960;PMS7003;64644;48.914;2.254;2023-04-25T11:41:49;2.00;2.00;2.00
75960;PMS7003;64644;48.914;2.254;2023-04-25T11:44:16;6.50;4.50;2.75
75960;PMS7003;64644;48.914;2.254;2023-04-25T11:46:42;6.25;6.25;3.50
75960;PMS7003;64644;48.914;2.254;2023-04-25T11:49:08;4.50;4.50;3.00
75960;PMS7003;64644;48.914;2.254;2023-04-25T11:54:06;5.00;5.00;3.00
75960;PMS7003;64644;48.914;2.254;2023-04-25T11:56:31;11.25;7.25;3.00
75960;PMS7003;64644;48.914;2.254;2023-04-25T11:58:58;6.50;6.50;2.75
75960;PMS7003;64644;48.914;2.254;2023-04-25T12:01:29;6.00;6.00;3.00
75960;PMS7003;64644;48.914;2.254;2023-04-25T12:03:56;8.25;6.50;4.00
75960;PMS7003;64644;48.914;2.254;2023-04-25T12:06:25;8.50;7.50;3.75
75960;PMS7003;64644;48.914;2.254;2023-04-25T12:09:02;7.25;7.00;5.00
75960;PMS7003;64644;48.914;2.254;2023-04-25T12:11:35;6.50;6.50;3.00
75960;PMS7003;64644;48.914;2.254;2023-04-25T12:14:05;7.25;7.25;5.00
75960;PMS7003;64644;48.914;2.254;2023-04-25T12:16:41;6.50;6.50;4.00
75960;PMS7003;64644;48.914;2.254;2023-04-25T12:19:09;7.50;6.75;4.00
75960;PMS7003;64644;48.914;2.254;2023-04-25T12:21:38;7.00;6.75;4.00
75960;PMS7003;64644;48.914;2.254;2023-04-25T12:24:22;4.50;4.50;3.00
75960;PMS7003;64644;48.914;2.254;2023-04-25T12:27:00;7.00;7.00;4.00
75960;PMS7003;64644;48.914;2.254;2023-04-25T12:29:30;8.75;6.25;4.50
75960;PMS7003;64644;48.914;2.254;2023-04-25T12:31:59;12.75;9.00;4.00
75960;PMS7003;64644;48.914;2.254;2023-04-25T12:34:27;10.25;10.25;5.00
75960;PMS7003;64644;48.914;2.254;2023-04-25T12:36:53;6.00;6.00;3.00
75960;PMS7003;64644;48.914;2.254;2023-04-25T12:39:19;5.25;4.00;3.00
75960;PMS7003;64644;48.914;2.254;2023-04-25T12:41:50;5.50;4.00;3.00
75960;PMS7003;64644;48.914;2.254;2023-04-25T12:44:18;7.75;5.75;3.75
75960;PMS7003;64644;48.914;2.254;2023-04-25T12:46:44;8.50;8.50;6.00
75960;PMS7003;64644;48.914;2.254;2023-04-25T12:49:10;9.00;8.50;6.00
75960;PMS7003;64644;48.914;2.254;2023-04-25T12:51:35;7.50;7.25;3.75
75960;PMS7003;64644;48.914;2.254;2023-04-25T12:54:01;9.00;8.25;6.00
75960;PMS7003;64644;48.914;2.254;2023-04-25T12:56:29;7.00;7.00;4.50
75960;PMS7003;64644;48.914;2.254;2023-04-25T12:58:56;7.25;4.00;3.00
75960;PMS7003;64644;48.914;2.254;2023-04-25T13:01:21;7.00;6.00;3.00
75960;PMS7003;64644;48.914;2.254;2023-04-25T13:03:47;7.50;6.25;3.00
75960;PMS7003;64644;48.914;2.254;2023-04-25T13:06:13;5.50;4.00;3.50
75960;PMS7003;64644;48.914;2.254;2023-04-25T13:08:42;8.75;6.00;4.00
75960;PMS7003;64644;48.914;2.254;2023-04-25T13:11:08;5.50;5.50;3.25
75960;PMS7003;64644;48.914;2.254;2023-04-25T13:13:34;10.00;9.00;6.25
75960;PMS7003;64644;48.914;2.254;2023-04-25T13:16:00;4.50;4.50;3.00
75960;PMS7003;64644;48.914;2.254;2023-04-25T13:18:27;2.75;2.75;0.25
75960;PMS7003;64644;48.914;2.254;2023-04-25T13:20:53;1.00;1.00;1.00
75960;PMS7003;64644;48.914;2.254;2023-04-25T13:23:18;7.00;4.00;2.50
75960;PMS7003;64644;48.914;2.254;2023-04-25T13:25:45;7.25;4.00;3.00
75960;PMS7003;64644;48.914;2.254;2023-04-25T13:28:10;6.00;4.00;3.00
75960;PMS7003;64644;48.914;2.254;2023-04-25T13:30:36;7.75;7.00;4.50
75960;PMS7003;64644;48.914;2.254;2023-04-25T13:33:01;6.00;6.00;4.00
75960;PMS7003;64644;48.914;2.254;2023-04-25T13:35:28;6.75;6.75;2.00
75960;PMS7003;64644;48.914;2.254;2023-04-25T13:37:55;6.00;6.00;3.00
75960;PMS7003;64644;48.914;2.254;2023-04-25T13:40:21;6.25;5.25;3.00
75960;PMS7003;64644;48.914;2.254;2023-04-25T13:42:46;9.75;8.25;3.00
75960;PMS7003;64644;48.914;2.254;2023-04-25T13:45:11;6.75;6.75;4.00
75960;PMS7003;64644;48.914;2.254;2023-04-25T13:47:37;6.25;6.00;3.00
75960;PMS7003;64644;48.914;2.254;2023-04-25T13:50:03;6.75;6.75;3.25
75960;PMS7003;64644;48.914;2.254;2023-04-25T13:52:30;6.00;4.00;3.00
75960;PMS7003;64644;48.914;2.254;2023-04-25T13:54:56;7.25;5.75;3.00
75960;PMS7003;64644;48.914;2.254;2023-04-25T13:57:22;4.00;4.00;3.00
75960;PMS7003;64644;48.914;2.254;2023-04-25T13:59:47;4.00;4.00;3.00
75960;PMS7003;64644;48.914;2.254;2023-04-25T14:02:13;3.00;3.00;2.00
75960;PMS7003;64644;48.914;2.254;2023-04-25T14:04:38;3.00;3.00;2.00
75960;PMS7003;64644;48.914;2.254;2023-04-25T14:07:04;7.25;5.50;2.00
75960;PMS7003;64644;48.914;2.254;2023-04-25T14:09:29;7.00;4.00;2.00
75960;PMS7003;64644;48.914;2.254;2023-04-25T14:11:55;6.50;5.25;3.50
75960;PMS7003;64644;48.914;2.254;2023-04-25T14:14:21;6.00;6.00;3.00
75960;PMS7003;64644;48.914;2.254;2023-04-25T14:16:47;3.00;3.00;2.00
75960;PMS7003;64644;48.914;2.254;2023-04-25T14:19:13;4.00;4.00;3.50
75960;PMS7003;64644;48.914;2.254;2023-04-25T14:21:39;6.00;6.00;3.75